sensor_id;sensor_type;location;lat;lon;timestamp;temperature;humidity
54158;DHT22;40065;49.894;10.358;2023-03-17T00:03:26;5.30;99.90
54158;DHT22;40065;49.894;10.358;2023-03-17T00:08:33;5.40;99.90
54158;DHT22;40065;49.894;10.358;2023-03-17T00:13:36;5.50;99.70
54158;DHT22;40065;49.894;10.358;2023-03-17T00:18:38;5.50;99.70
54158;DHT22;40065;49.894;10.358;2023-03-17T00:23:41;5.40;99.80
54158;DHT22;40065;49.894;10.358;2023-03-17T00:28:45;5.50;99.50
54158;DHT22;40065;49.894;10.358;2023-03-17T00:33:48;5.60;99.60
54158;DHT22;40065;49.894;10.358;2023-03-17T00:38:51;5.70;99.30
54158;DHT22;40065;49.894;10.358;2023-03-17T00:43:53;5.60;99.20
54158;DHT22;40065;49.894;10.358;2023-03-17T00:48:55;5.60;99.20
54158;DHT22;40065;49.894;10.358;2023-03-17T00:53:56;5.70;99.30
54158;DHT22;40065;49.894;10.358;2023-03-17T00:59:01;5.40;99.50
54158;DHT22;40065;49.894;10.358;2023-03-17T01:04:03;5.50;99.50
54158;DHT22;40065;49.894;10.358;2023-03-17T01:09:05;5.40;99.60
54158;DHT22;40065;49.894;10.358;2023-03-17T01:14:08;5.70;98.90
54158;DHT22;40065;49.894;10.358;2023-03-17T01:19:11;5.40;99.30
54158;DHT22;40065;49.894;10.358;2023-03-17T01:24:13;5.30;99.70
54158;DHT22;40065;49.894;10.358;2023-03-17T01:29:15;5.60;99.00
54158;DHT22;40065;49.894;10.358;2023-03-17T01:34:18;5.30;99.50
54158;DHT22;40065;49.894;10.358;2023-03-17T01:39:20;5.00;99.90
54158;DHT22;40065;49.894;10.358;2023-03-17T01:44:22;5.20;99.80
54158;DHT22;40065;49.894;10.358;2023-03-17T01:49:33;5.60;98.60
54158;DHT22;40065;49.894;10.358;2023-03-17T01:55:00;5.30;99.50
54158;DHT22;40065;49.894;10.358;2023-03-17T02:00:13;5.40;99.00
54158;DHT22;40065;49.894;10.358;2023-03-17T02:05:20;5.30;99.70
54158;DHT22;40065;49.894;10.358;2023-03-17T02:10:24;5.50;99.10
54158;DHT22;40065;49.894;10.358;2023-03-17T02:15:45;5.40;98.80
54158;DHT22;40065;49.894;10.358;2023-03-17T02:25:51;5.20;99.10
54158;DHT22;40065;49.894;10.358;2023-03-17T02:30:53;5.50;98.60
54158;DHT22;40065;49.894;10.358;2023-03-17T02:35:55;5.30;98.80
54158;DHT22;40065;49.894;10.358;2023-03-17T02:40:57;5.20;98.50
54158;DHT22;40065;49.894;10.358;2023-03-17T02:45:59;5.30;98.50
54158;DHT22;40065;49.894;10.358;2023-03-17T02:51:02;5.30;98.70
54158;DHT22;40065;49.894;10.358;2023-03-17T02:56:05;5.20;98.80
54158;DHT22;40065;49.894;10.358;2023-03-17T03:01:06;5.20;98.60
54158;DHT22;40065;49.894;10.358;2023-03-17T03:06:10;5.00;99.00
54158;DHT22;40065;49.894;10.358;2023-03-17T03:11:11;5.00;98.70
54158;DHT22;40065;49.894;10.358;2023-03-17T03:16:14;4.90;99.00
54158;DHT22;40065;49.894;10.358;2023-03-17T03:21:16;5.00;98.80
54158;DHT22;40065;49.894;10.358;2023-03-17T03:26:18;5.10;98.20
54158;DHT22;40065;49.894;10.358;2023-03-17T03:31:20;5.00;98.40
54158;DHT22;40065;49.894;10.358;2023-03-17T03:36:22;4.90;98.70
54158;DHT22;40065;49.894;10.358;2023-03-17T03:41:24;4.90;98.70
54158;DHT22;40065;49.894;10.358;2023-03-17T03:46:26;5.00;98.50
54158;DHT22;40065;49.894;10.358;2023-03-17T03:51:28;4.80;98.80
54158;DHT22;40065;49.894;10.358;2023-03-17T03:56:30;5.00;98.50
54158;DHT22;40065;49.894;10.358;2023-03-17T04:01:31;4.90;98.50
54158;DHT22;40065;49.894;10.358;2023-03-17T04:06:33;5.00;98.60
54158;DHT22;40065;49.894;10.358;2023-03-17T04:11:35;4.90;98.60
54158;DHT22;40065;49.894;10.358;2023-03-17T04:16:37;4.90;98.40
54158;DHT22;40065;49.894;10.358;2023-03-17T04:21:39;4.80;98.80
54158;DHT22;40065;49.894;10.358;2023-03-17T04:26:40;4.90;98.60
54158;DHT22;40065;49.894;10.358;2023-03-17T04:31:42;4.90;98.70
54158;DHT22;40065;49.894;10.358;2023-03-17T04:36:45;4.80;98.90
54158;DHT22;40065;49.894;10.358;2023-03-17T04:41:47;4.80;98.90
54158;DHT22;40065;49.894;10.358;2023-03-17T04:46:49;4.60;99.00
54158;DHT22;40065;49.894;10.358;2023-03-17T04:51:51;4.50;99.80
54158;DHT22;40065;49.894;10.358;2023-03-17T04:56:53;4.40;99.90
54158;DHT22;40065;49.894;10.358;2023-03-17T05:01:55;4.30;99.90
54158;DHT22;40065;49.894;10.358;2023-03-17T05:06:57;4.00;99.90
54158;DHT22;40065;49.894;10.358;2023-03-17T05:11:58;4.00;99.90
54158;DHT22;40065;49.894;10.358;2023-03-17T05:17:01;3.90;99.90
54158;DHT22;40065;49.894;10.358;2023-03-17T05:22:03;4.00;99.90
54158;DHT22;40065;49.894;10.358;2023-03-17T05:27:05;3.90;99.90
54158;DHT22;40065;49.894;10.358;2023-03-17T05:32:07;3.80;99.90
54158;DHT22;40065;49.894;10.358;2023-03-17T05:37:09;4.00;99.90
54158;DHT22;40065;49.894;10.358;2023-03-17T05:42:11;3.90;99.90
54158;DHT22;40065;49.894;10.358;2023-03-17T05:47:13;4.10;99.90
54158;DHT22;40065;49.894;10.358;2023-03-17T05:52:15;4.30;99.90
54158;DHT22;40065;49.894;10.358;2023-03-17T05:57:17;4.30;99.90
54158;DHT22;40065;49.894;10.358;2023-03-17T06:02:19;4.40;99.90
54158;DHT22;40065;49.894;10.358;2023-03-17T06:07:21;4.40;99.90
54158;DHT22;40065;49.894;10.358;2023-03-17T06:12:23;5.10;99.40
54158;DHT22;40065;49.894;10.358;2023-03-17T06:17:25;6.20;97.20
54158;DHT22;40065;49.894;10.358;2023-03-17T06:22:26;6.50;95.20
54158;DHT22;40065;49.894;10.358;2023-03-17T06:27:28;6.20;96.30
54158;DHT22;40065;49.894;10.358;2023-03-17T06:32:31;6.90;95.20
54158;DHT22;40065;49.894;10.358;2023-03-17T06:37:34;7.70;94.20
54158;DHT22;40065;49.894;10.358;2023-03-17T06:42:35;10.30;90.70
54158;DHT22;40065;49.894;10.358;2023-03-17T06:47:37;10.80;90.60
54158;DHT22;40065;49.894;10.358;2023-03-17T06:52:40;11.80;82.00
54158;DHT22;40065;49.894;10.358;2023-03-17T06:57:42;12.70;82.10
54158;DHT22;40065;49.894;10.358;2023-03-17T07:02:44;12.90;76.90
54158;DHT22;40065;49.894;10.358;2023-03-17T07:07:46;14.30;78.90
54158;DHT22;40065;49.894;10.358;2023-03-17T07:12:48;14.70;73.30
54158;DHT22;40065;49.894;10.358;2023-03-17T07:17:50;15.10;73.40
54158;DHT22;40065;49.894;10.358;2023-03-17T07:22:52;16.40;69.60
54158;DHT22;40065;49.894;10.358;2023-03-17T07:27:54;14.10;71.00
54158;DHT22;40065;49.894;10.358;2023-03-17T07:32:57;13.40;74.30
54158;DHT22;40065;49.894;10.358;2023-03-17T07:37:58;12.30;77.00
54158;DHT22;40065;49.894;10.358;2023-03-17T07:43:01;12.90;75.30
54158;DHT22;40065;49.894;10.358;2023-03-17T07:48:04;11.40;77.90
54158;DHT22;40065;49.894;10.358;2023-03-17T07:53:06;10.70;82.30
54158;DHT22;40065;49.894;10.358;2023-03-17T07:58:08;10.90;80.50
54158;DHT22;40065;49.894;10.358;2023-03-17T08:03:11;12.70;80.50
54158;DHT22;40065;49.894;10.358;2023-03-17T08:08:13;16.70;70.10
54158;DHT22;40065;49.894;10.358;2023-03-17T08:13:16;16.60;67.80
54158;DHT22;40065;49.894;10.358;2023-03-17T08:18:18;16.40;70.60
54158;DHT22;40065;49.894;10.358;2023-03-17T08:23:20;16.30;66.10
54158;DHT22;40065;49.894;10.358;2023-03-17T08:28:23;16.50;70.00
54158;DHT22;40065;49.894;10.358;2023-03-17T08:33:25;17.40;67.40
54158;DHT22;40065;49.894;10.358;2023-03-17T08:38:26;16.70;62.70
54158;DHT22;40065;49.894;10.358;2023-03-17T08:43:28;18.00;63.60
54158;DHT22;40065;49.894;10.358;2023-03-17T08:48:31;17.60;61.60
54158;DHT22;40065;49.894;10.358;2023-03-17T08:53:33;17.60;61.90
54158;DHT22;40065;49.894;10.358;2023-03-17T08:58:37;17.50;61.20
54158;DHT22;40065;49.894;10.358;2023-03-17T09:03:41;18.20;60.50
54158;DHT22;40065;49.894;10.358;2023-03-17T09:08:43;18.10;60.60
54158;DHT22;40065;49.894;10.358;2023-03-17T09:13:46;16.80;62.60
54158;DHT22;40065;49.894;10.358;2023-03-17T09:18:48;17.70;60.10
54158;DHT22;40065;49.894;10.358;2023-03-17T09:23:50;17.80;62.00
54158;DHT22;40065;49.894;10.358;2023-03-17T09:28:52;20.30;59.00
54158;DHT22;40065;49.894;10.358;2023-03-17T09:33:55;20.90;55.60
54158;DHT22;40065;49.894;10.358;2023-03-17T09:38:56;21.40;57.40
54158;DHT22;40065;49.894;10.358;2023-03-17T09:44:14;19.70;56.70
54158;DHT22;40065;49.894;10.358;2023-03-17T09:49:38;16.60;61.10
54158;DHT22;40065;49.894;10.358;2023-03-17T09:54:41;18.20;61.10
54158;DHT22;40065;49.894;10.358;2023-03-17T09:59:52;18.10;58.10
54158;DHT22;40065;49.894;10.358;2023-03-17T10:04:56;16.50;63.00
54158;DHT22;40065;49.894;10.358;2023-03-17T10:10:00;16.50;62.50
54158;DHT22;40065;49.894;10.358;2023-03-17T10:15:05;19.40;59.20
54158;DHT22;40065;49.894;10.358;2023-03-17T10:20:23;18.40;58.50
54158;DHT22;40065;49.894;10.358;2023-03-17T10:25:29;19.10;58.60
54158;DHT22;40065;49.894;10.358;2023-03-17T10:30:32;19.80;59.00
54158;DHT22;40065;49.894;10.358;2023-03-17T10:35:36;19.40;59.60
54158;DHT22;40065;49.894;10.358;2023-03-17T10:40:40;18.70;59.30
54158;DHT22;40065;49.894;10.358;2023-03-17T10:45:54;18.90;60.90
54158;DHT22;40065;49.894;10.358;2023-03-17T10:50:58;18.80;60.20
54158;DHT22;40065;49.894;10.358;2023-03-17T10:56:08;17.10;62.80
54158;DHT22;40065;49.894;10.358;2023-03-17T11:01:36;17.40;61.70
54158;DHT22;40065;49.894;10.358;2023-03-17T11:06:41;18.10;64.20
54158;DHT22;40065;49.894;10.358;2023-03-17T11:11:46;19.70;59.90
54158;DHT22;40065;49.894;10.358;2023-03-17T11:16:52;19.70;59.00
54158;DHT22;40065;49.894;10.358;2023-03-17T11:22:26;19.90;58.40
54158;DHT22;40065;49.894;10.358;2023-03-17T11:27:34;17.80;59.30
54158;DHT22;40065;49.894;10.358;2023-03-17T11:33:04;17.60;64.10
54158;DHT22;40065;49.894;10.358;2023-03-17T11:38:18;18.40;61.70
54158;DHT22;40065;49.894;10.358;2023-03-17T11:43:36;19.30;59.80
54158;DHT22;40065;49.894;10.358;2023-03-17T11:49:02;20.90;58.20
54158;DHT22;40065;49.894;10.358;2023-03-17T11:54:10;18.70;61.80
54158;DHT22;40065;49.894;10.358;2023-03-17T11:59:28;19.10;59.50
54158;DHT22;40065;49.894;10.358;2023-03-17T12:04:39;18.10;61.90
54158;DHT22;40065;49.894;10.358;2023-03-17T12:10:04;20.00;59.90
54158;DHT22;40065;49.894;10.358;2023-03-17T12:15:15;19.70;60.20
54158;DHT22;40065;49.894;10.358;2023-03-17T12:25:57;19.40;60.60
54158;DHT22;40065;49.894;10.358;2023-03-17T12:31:14;19.70;59.00
54158;DHT22;40065;49.894;10.358;2023-03-17T12:36:18;19.50;62.60
54158;DHT22;40065;49.894;10.358;2023-03-17T12:41:41;19.50;60.00
54158;DHT22;40065;49.894;10.358;2023-03-17T12:47:18;18.50;62.10
54158;DHT22;40065;49.894;10.358;2023-03-17T12:52:45;17.70;64.20
54158;DHT22;40065;49.894;10.358;2023-03-17T12:58:05;19.20;62.20
54158;DHT22;40065;49.894;10.358;2023-03-17T13:08:29;19.40;61.70
54158;DHT22;40065;49.894;10.358;2023-03-17T13:13:56;19.10;61.00
54158;DHT22;40065;49.894;10.358;2023-03-17T13:19:22;18.60;64.50
54158;DHT22;40065;49.894;10.358;2023-03-17T13:24:45;18.10;66.00
54158;DHT22;40065;49.894;10.358;2023-03-17T13:29:48;17.60;65.30
54158;DHT22;40065;49.894;10.358;2023-03-17T13:40:19;18.80;65.60
54158;DHT22;40065;49.894;10.358;2023-03-17T13:45:40;18.80;65.20
54158;DHT22;40065;49.894;10.358;2023-03-17T13:50:42;18.60;65.20
54158;DHT22;40065;49.894;10.358;2023-03-17T13:56:07;18.20;65.60
54158;DHT22;40065;49.894;10.358;2023-03-17T14:01:12;18.70;66.30
54158;DHT22;40065;49.894;10.358;2023-03-17T14:06:16;18.30;67.70
54158;DHT22;40065;49.894;10.358;2023-03-17T14:11:31;18.60;67.90
54158;DHT22;40065;49.894;10.358;2023-03-17T14:16:43;18.60;68.30
54158;DHT22;40065;49.894;10.358;2023-03-17T14:21:46;18.60;70.60
54158;DHT22;40065;49.894;10.358;2023-03-17T14:26:49;18.60;69.10
54158;DHT22;40065;49.894;10.358;2023-03-17T14:32:04;18.70;68.70
54158;DHT22;40065;49.894;10.358;2023-03-17T14:37:09;19.40;68.00
54158;DHT22;40065;49.894;10.358;2023-03-17T14:42:11;18.70;67.00
54158;DHT22;40065;49.894;10.358;2023-03-17T14:47:19;18.80;66.80
54158;DHT22;40065;49.894;10.358;2023-03-17T14:52:25;18.60;69.50
54158;DHT22;40065;49.894;10.358;2023-03-17T14:57:31;18.40;69.50
54158;DHT22;40065;49.894;10.358;2023-03-17T15:02:35;18.80;70.00
54158;DHT22;40065;49.894;10.358;2023-03-17T15:07:40;19.20;69.50
54158;DHT22;40065;49.894;10.358;2023-03-17T15:12:44;18.90;68.20
54158;DHT22;40065;49.894;10.358;2023-03-17T15:17:51;18.80;67.00
54158;DHT22;40065;49.894;10.358;2023-03-17T15:22:59;18.30;71.60
54158;DHT22;40065;49.894;10.358;2023-03-17T15:28:14;17.70;73.20
54158;DHT22;40065;49.894;10.358;2023-03-17T15:33:21;17.50;76.20
54158;DHT22;40065;49.894;10.358;2023-03-17T15:38:23;17.30;76.40
54158;DHT22;40065;49.894;10.358;2023-03-17T15:43:25;17.00;77.90
54158;DHT22;40065;49.894;10.358;2023-03-17T15:48:29;16.80;80.60
54158;DHT22;40065;49.894;10.358;2023-03-17T15:53:31;16.70;82.20
54158;DHT22;40065;49.894;10.358;2023-03-17T15:58:33;16.40;81.90
54158;DHT22;40065;49.894;10.358;2023-03-17T16:03:35;16.20;83.30
54158;DHT22;40065;49.894;10.358;2023-03-17T16:08:38;16.10;82.30
54158;DHT22;40065;49.894;10.358;2023-03-17T16:13:40;16.00;82.80
54158;DHT22;40065;49.894;10.358;2023-03-17T16:18:41;15.70;86.10
54158;DHT22;40065;49.894;10.358;2023-03-17T16:23:44;15.40;89.30
54158;DHT22;40065;49.894;10.358;2023-03-17T16:28:46;15.30;90.20
54158;DHT22;40065;49.894;10.358;2023-03-17T16:33:50;15.20;90.10
54158;DHT22;40065;49.894;10.358;2023-03-17T16:38:53;15.10;88.80
54158;DHT22;40065;49.894;10.358;2023-03-17T16:44:01;14.90;88.90
54158;DHT22;40065;49.894;10.358;2023-03-17T16:49:04;14.70;90.40
54158;DHT22;40065;49.894;10.358;2023-03-17T16:54:07;14.70;90.50
54158;DHT22;40065;49.894;10.358;2023-03-17T16:59:14;14.30;90.70
54158;DHT22;40065;49.894;10.358;2023-03-17T17:04:17;14.20;90.50
54158;DHT22;40065;49.894;10.358;2023-03-17T17:09:19;14.10;90.50
54158;DHT22;40065;49.894;10.358;2023-03-17T17:14:21;13.90;90.20
54158;DHT22;40065;49.894;10.358;2023-03-17T17:19:22;13.90;91.30
54158;DHT22;40065;49.894;10.358;2023-03-17T17:24:24;13.90;90.30
54158;DHT22;40065;49.894;10.358;2023-03-17T17:29:26;13.90;90.00
54158;DHT22;40065;49.894;10.358;2023-03-17T17:34:28;13.90;89.20
54158;DHT22;40065;49.894;10.358;2023-03-17T17:39:29;13.80;90.30
54158;DHT22;40065;49.894;10.358;2023-03-17T17:44:31;13.40;91.70
54158;DHT22;40065;49.894;10.358;2023-03-17T17:49:33;13.50;90.70
54158;DHT22;40065;49.894;10.358;2023-03-17T17:54:35;13.30;91.10
54158;DHT22;40065;49.894;10.358;2023-03-17T17:59:37;13.00;92.10
54158;DHT22;40065;49.894;10.358;2023-03-17T18:04:38;12.90;91.70
54158;DHT22;40065;49.894;10.358;2023-03-17T18:09:40;13.40;90.40
54158;DHT22;40065;49.894;10.358;2023-03-17T18:14:42;13.30;89.10
54158;DHT22;40065;49.894;10.358;2023-03-17T18:19:44;13.30;90.00
54158;DHT22;40065;49.894;10.358;2023-03-17T18:24:46;13.50;89.50
54158;DHT22;40065;49.894;10.358;2023-03-17T18:29:48;13.40;89.30
54158;DHT22;40065;49.894;10.358;2023-03-17T18:34:50;13.60;87.80
54158;DHT22;40065;49.894;10.358;2023-03-17T18:39:52;13.90;85.10
54158;DHT22;40065;49.894;10.358;2023-03-17T18:45:13;13.70;85.40
54158;DHT22;40065;49.894;10.358;2023-03-17T18:50:16;13.70;85.10
54158;DHT22;40065;49.894;10.358;2023-03-17T18:55:18;13.80;84.30
54158;DHT22;40065;49.894;10.358;2023-03-17T19:00:21;13.70;85.40
54158;DHT22;40065;49.894;10.358;2023-03-17T19:05:25;13.40;85.40
54158;DHT22;40065;49.894;10.358;2023-03-17T19:10:27;13.60;85.20
54158;DHT22;40065;49.894;10.358;2023-03-17T19:15:29;13.60;85.30
54158;DHT22;40065;49.894;10.358;2023-03-17T19:20:31;13.40;85.10
54158;DHT22;40065;49.894;10.358;2023-03-17T19:25:34;13.40;85.80
54158;DHT22;40065;49.894;10.358;2023-03-17T19:30:37;13.10;86.30
54158;DHT22;40065;49.894;10.358;2023-03-17T19:35:41;13.50;85.30
54158;DHT22;40065;49.894;10.358;2023-03-17T19:40:44;13.10;87.50
54158;DHT22;40065;49.894;10.358;2023-03-17T19:45:46;12.60;90.30
54158;DHT22;40065;49.894;10.358;2023-03-17T19:50:48;12.40;89.40
54158;DHT22;40065;49.894;10.358;2023-03-17T19:55:50;12.20;91.20
54158;DHT22;40065;49.894;10.358;2023-03-17T20:00:52;11.80;91.70
54158;DHT22;40065;49.894;10.358;2023-03-17T20:05:54;12.00;91.60
54158;DHT22;40065;49.894;10.358;2023-03-17T20:10:55;12.00;91.30
54158;DHT22;40065;49.894;10.358;2023-03-17T20:15:57;12.20;91.30
54158;DHT22;40065;49.894;10.358;2023-03-17T20:20:59;12.50;90.90
54158;DHT22;40065;49.894;10.358;2023-03-17T20:26:06;11.60;92.80
54158;DHT22;40065;49.894;10.358;2023-03-17T20:31:09;11.20;94.10
54158;DHT22;40065;49.894;10.358;2023-03-17T20:36:11;10.90;94.50
54158;DHT22;40065;49.894;10.358;2023-03-17T20:41:15;10.70;95.30
54158;DHT22;40065;49.894;10.358;2023-03-17T20:46:20;10.40;96.60
54158;DHT22;40065;49.894;10.358;2023-03-17T20:51:24;10.20;98.40
54158;DHT22;40065;49.894;10.358;2023-03-17T20:56:26;10.30;98.60
54158;DHT22;40065;49.894;10.358;2023-03-17T21:01:32;10.10;99.70
54158;DHT22;40065;49.894;10.358;2023-03-17T21:06:37;10.10;99.90
54158;DHT22;40065;49.894;10.358;2023-03-17T21:11:39;10.40;99.20
54158;DHT22;40065;49.894;10.358;2023-03-17T21:16:41;10.70;98.40
54158;DHT22;40065;49.894;10.358;2023-03-17T21:21:45;10.40;99.60
54158;DHT22;40065;49.894;10.358;2023-03-17T21:26:47;10.40;99.90
54158;DHT22;40065;49.894;10.358;2023-03-17T21:31:48;10.30;99.90
54158;DHT22;40065;49.894;10.358;2023-03-17T21:36:51;10.60;99.90
54158;DHT22;40065;49.894;10.358;2023-03-17T21:41:54;10.80;98.40
54158;DHT22;40065;49.894;10.358;2023-03-17T21:46:57;11.20;97.60
54158;DHT22;40065;49.894;10.358;2023-03-17T21:52:03;11.10;97.60
54158;DHT22;40065;49.894;10.358;2023-03-17T21:57:08;11.10;98.50
54158;DHT22;40065;49.894;10.358;2023-03-17T22:02:12;11.30;97.50
54158;DHT22;40065;49.894;10.358;2023-03-17T22:07:15;11.30;97.90
54158;DHT22;40065;49.894;10.358;2023-03-17T22:12:17;11.10;98.50
54158;DHT22;40065;49.894;10.358;2023-03-17T22:17:19;11.50;97.80
54158;DHT22;40065;49.894;10.358;2023-03-17T22:22:21;12.10;95.50
54158;DHT22;40065;49.894;10.358;2023-03-17T22:27:23;12.40;95.10
54158;DHT22;40065;49.894;10.358;2023-03-17T22:32:25;11.50;97.40
54158;DHT22;40065;49.894;10.358;2023-03-17T22:37:27;11.00;99.00
54158;DHT22;40065;49.894;10.358;2023-03-17T22:42:28;11.40;97.50
54158;DHT22;40065;49.894;10.358;2023-03-17T22:47:30;11.10;98.50
54158;DHT22;40065;49.894;10.358;2023-03-17T22:52:32;11.30;97.60
54158;DHT22;40065;49.894;10.358;2023-03-17T22:57:34;12.00;95.90
54158;DHT22;40065;49.894;10.358;2023-03-17T23:02:36;11.50;97.30
54158;DHT22;40065;49.894;10.358;2023-03-17T23:07:39;12.20;95.90
54158;DHT22;40065;49.894;10.358;2023-03-17T23:12:51;11.20;98.10
54158;DHT22;40065;49.894;10.358;2023-03-17T23:17:53;11.60;97.80
54158;DHT22;40065;49.894;10.358;2023-03-17T23:22:55;12.20;96.40
54158;DHT22;40065;49.894;10.358;2023-03-17T23:27:57;12.30;95.90
54158;DHT22;40065;49.894;10.358;2023-03-17T23:32:59;12.50;95.80
54158;DHT22;40065;49.894;10.358;2023-03-17T23:38:02;12.50;95.80
54158;DHT22;40065;49.894;10.358;2023-03-17T23:43:04;12.50;96.00
54158;DHT22;40065;49.894;10.358;2023-03-17T23:48:08;12.30;96.50
54158;DHT22;40065;49.894;10.358;2023-03-17T23:53:10;12.40;96.30
54158;DHT22;40065;49.894;10.358;2023-03-17T23:58:12;12.10;97.10
